< < Back
Terminal Aerodrome Forecast


Current Version              Previous Versions:   1  2  3  4  5  6  7  8  9  

Terminal Aerodrome Forecast

013
FTUS42 KFFC 270945 AAB
TAFFTY
TAF AMD
KFTY 270945Z 2710/2806 27008G17KT P6SM SCT070
     FM271200 30010G20KT P6SM BKN035
     FM271800 31013G23KT P6SM SCT040
     FM280000 32006KT P6SM FEW050=



Latest METAR

032
SAUS70 KWBC 272000 RRI
MTRFTY
METAR KFTY 271953Z 31013KT 10SM OVC042 07/M03 A3029 RMK AO2 SLP260
T00671033


USA.gov is the U.S. government's official web portal to all federal, state and local government web resources and services.